createdAt,value
2023-05-13T00:00:51.324Z,11.11
2023-05-13T00:01:51.315Z,11.20
2023-05-13T00:02:51.394Z,11.24
2023-05-13T00:03:51.363Z,11.27
2023-05-13T00:04:51.289Z,11.24
2023-05-13T00:05:51.290Z,11.35
2023-05-13T00:06:51.282Z,11.29
2023-05-13T00:07:51.268Z,11.29
2023-05-13T00:08:51.264Z,11.25
2023-05-13T00:09:51.248Z,11.35
2023-05-13T00:10:51.234Z,11.36
2023-05-13T00:11:51.247Z,11.34
2023-05-13T00:12:51.210Z,11.43
2023-05-13T00:13:51.202Z,11.39
2023-05-13T00:14:51.185Z,11.35
2023-05-13T00:15:51.279Z,11.43
2023-05-13T00:16:51.230Z,11.36
2023-05-13T00:17:51.228Z,11.41
2023-05-13T00:18:51.220Z,11.44
2023-05-13T00:19:51.148Z,11.38
2023-05-13T00:20:51.143Z,11.54
2023-05-13T00:21:51.132Z,11.54
2023-05-13T00:22:51.105Z,11.59
2023-05-13T00:23:51.093Z,11.53
2023-05-13T00:24:51.093Z,11.50
2023-05-13T00:25:51.104Z,11.53
2023-05-13T00:26:51.064Z,11.59
2023-05-13T00:27:51.053Z,11.61
2023-05-13T00:28:51.055Z,11.50
2023-05-13T00:29:51.035Z,11.54
2023-05-13T00:30:51.046Z,11.54
2023-05-13T00:31:51.037Z,11.54
2023-05-13T00:32:51.037Z,11.53
2023-05-13T00:33:50.997Z,11.61
2023-05-13T00:34:50.996Z,11.46
2023-05-13T00:35:50.986Z,11.39
2023-05-13T00:36:50.972Z,11.49
2023-05-13T00:37:50.962Z,11.53
2023-05-13T00:38:50.950Z,11.67
2023-05-13T00:39:50.966Z,11.68
2023-05-13T00:40:50.944Z,11.61
2023-05-13T00:41:50.910Z,11.74
2023-05-13T00:42:50.975Z,11.54
2023-05-13T00:43:50.902Z,11.53
2023-05-13T00:44:50.906Z,11.43
2023-05-13T00:45:50.915Z,11.54
2023-05-13T00:46:50.867Z,11.50
2023-05-13T00:47:51.009Z,11.46
2023-05-13T00:48:50.866Z,11.49
2023-05-13T00:49:50.861Z,11.49
2023-05-13T00:50:50.830Z,11.36
2023-05-13T00:51:50.818Z,11.39
2023-05-13T00:52:50.820Z,11.52
2023-05-13T00:53:50.833Z,11.56
2023-05-13T00:54:50.807Z,11.46
2023-05-13T00:55:50.816Z,11.53
2023-05-13T00:56:50.772Z,11.39
2023-05-13T00:57:50.761Z,11.47
2023-05-13T00:58:50.784Z,11.53
2023-05-13T00:59:50.749Z,11.62
2023-05-13T01:00:50.789Z,11.50
2023-05-13T01:01:50.731Z,11.57
2023-05-13T01:02:50.801Z,11.56
2023-05-13T01:03:50.724Z,11.54
2023-05-13T01:04:50.698Z,11.67
2023-05-13T01:05:50.699Z,11.57
2023-05-13T01:06:50.673Z,11.47
2023-05-13T01:07:50.653Z,11.53
2023-05-13T01:08:50.668Z,11.43
2023-05-13T01:09:50.632Z,11.44
2023-05-13T01:10:50.636Z,11.46
2023-05-13T01:11:50.627Z,11.46
2023-05-13T01:12:50.606Z,11.39
2023-05-13T01:13:50.601Z,11.49
2023-05-13T01:14:50.586Z,11.35
2023-05-13T01:15:50.581Z,11.36
2023-05-13T01:16:50.606Z,11.41
2023-05-13T01:17:50.595Z,11.29
2023-05-13T01:18:50.612Z,11.34
2023-05-13T01:19:50.544Z,11.34
2023-05-13T01:20:50.524Z,11.28
2023-05-13T01:21:50.517Z,11.35
2023-05-13T01:22:50.522Z,11.28
2023-05-13T01:23:50.502Z,11.27
2023-05-13T01:24:50.521Z,11.21
2023-05-13T01:25:50.477Z,11.17
2023-05-13T01:26:50.469Z,11.13
2023-05-13T01:27:50.454Z,11.14
2023-05-13T01:28:51.459Z,11.16
2023-05-13T01:29:50.447Z,11.06
2023-05-13T01:30:50.480Z,11.07
2023-05-13T01:31:50.429Z,10.94
2023-05-13T01:32:50.476Z,11.02
2023-05-13T01:33:50.406Z,10.89
2023-05-13T01:34:50.388Z,10.98
2023-05-13T01:35:50.382Z,10.86
2023-05-13T01:36:50.379Z,10.92
2023-05-13T01:37:50.370Z,10.83
2023-05-13T01:38:50.362Z,10.86
2023-05-13T01:39:50.347Z,10.80
2023-05-13T01:40:50.344Z,10.74
2023-05-13T01:41:50.342Z,10.77
2023-05-13T01:42:50.315Z,10.81
2023-05-13T01:43:50.304Z,10.76
2023-05-13T01:44:50.301Z,10.73
2023-05-13T01:45:50.298Z,10.70
2023-05-13T01:46:50.543Z,10.66
2023-05-13T01:47:50.325Z,10.76
2023-05-13T01:48:50.257Z,10.78
2023-05-13T01:49:50.241Z,10.73
2023-05-13T01:50:50.262Z,10.80
2023-05-13T01:51:50.226Z,10.77
2023-05-13T01:52:50.213Z,10.70
2023-05-13T01:53:50.215Z,10.77
2023-05-13T01:54:50.192Z,10.80
2023-05-13T01:55:50.208Z,10.76
2023-05-13T01:56:50.177Z,10.92
2023-05-13T01:57:50.171Z,10.86
2023-05-13T01:58:50.142Z,10.89
2023-05-13T01:59:51.188Z,10.84
2023-05-13T02:00:50.140Z,10.86
2023-05-13T02:01:50.140Z,10.92
2023-05-13T02:02:50.178Z,10.89
2023-05-13T02:03:50.215Z,10.88
2023-05-13T02:04:50.106Z,10.95
2023-05-13T02:05:50.085Z,11.02
2023-05-13T02:06:50.076Z,10.96
2023-05-13T02:07:50.064Z,11.07
2023-05-13T02:08:50.051Z,11.07
2023-05-13T02:09:50.053Z,11.09
2023-05-13T02:10:50.041Z,10.96
2023-05-13T02:11:50.050Z,11.06
2023-05-13T02:12:50.031Z,10.99
2023-05-13T02:13:50.019Z,11.02
2023-05-13T02:14:50.014Z,11.02
2023-05-13T02:15:49.991Z,10.96
2023-05-13T02:16:50.163Z,10.86
2023-05-13T02:17:50.003Z,10.80
2023-05-13T02:18:50.038Z,10.77
2023-05-13T02:19:49.948Z,10.76
2023-05-13T02:20:49.947Z,10.73
2023-05-13T02:21:49.939Z,10.71
2023-05-13T02:22:49.914Z,10.73
2023-05-13T02:23:49.912Z,10.77
2023-05-13T02:24:49.900Z,10.84
2023-05-13T02:25:49.884Z,10.74
2023-05-13T02:26:49.891Z,10.73
2023-05-13T02:27:49.886Z,10.76
2023-05-13T02:28:49.876Z,10.63
2023-05-13T02:29:49.847Z,10.80
2023-05-13T02:30:49.848Z,10.68
2023-05-13T02:31:49.837Z,10.84
2023-05-13T02:32:49.882Z,10.84
2023-05-13T02:33:49.805Z,10.78
2023-05-13T02:34:49.806Z,10.78
2023-05-13T02:35:49.795Z,10.74
2023-05-13T02:36:49.776Z,10.73
2023-05-13T02:37:49.784Z,10.71
2023-05-13T02:38:49.756Z,10.62
2023-05-13T02:39:49.744Z,10.66
2023-05-13T02:40:49.746Z,10.56
2023-05-13T02:41:49.741Z,10.56
2023-05-13T02:42:49.738Z,10.53
2023-05-13T02:43:49.728Z,10.42
2023-05-13T02:44:49.707Z,10.44
2023-05-13T02:45:49.720Z,10.58
2023-05-13T02:46:49.685Z,10.59
2023-05-13T02:47:49.709Z,10.62
2023-05-13T02:48:49.671Z,10.66
2023-05-13T02:49:50.660Z,10.65
2023-05-13T02:50:49.637Z,10.66
2023-05-13T02:51:49.648Z,10.66
2023-05-13T02:52:49.626Z,10.68
2023-05-13T02:53:49.613Z,10.58
2023-05-13T02:54:49.628Z,10.59
2023-05-13T02:55:49.602Z,10.68
2023-05-13T02:56:49.596Z,10.65
2023-05-13T02:57:49.580Z,10.74
2023-05-13T02:58:49.558Z,10.59
2023-05-13T02:59:49.557Z,10.55
2023-05-13T03:00:49.554Z,10.58
2023-05-13T03:01:49.586Z,10.42
2023-05-13T03:02:49.550Z,10.51
2023-05-13T03:03:49.542Z,10.42
2023-05-13T03:04:49.502Z,10.40
2023-05-13T03:05:49.520Z,10.30
2023-05-13T03:06:49.491Z,10.26
2023-05-13T03:07:49.476Z,10.22
2023-05-13T03:08:49.462Z,10.26
2023-05-13T03:09:49.474Z,10.21
2023-05-13T03:10:49.465Z,10.21
2023-05-13T03:11:49.428Z,10.24
2023-05-13T03:12:49.425Z,10.24
2023-05-13T03:13:49.419Z,10.22
2023-05-13T03:14:49.424Z,10.30
2023-05-13T03:15:49.445Z,10.24
2023-05-13T03:16:49.388Z,10.25
2023-05-13T03:17:49.400Z,10.30
2023-05-13T03:18:49.386Z,10.21
2023-05-13T03:19:49.372Z,10.28
2023-05-13T03:20:49.347Z,10.14
2023-05-13T03:21:49.336Z,10.25
2023-05-13T03:22:49.329Z,10.30
2023-05-13T03:23:49.314Z,10.25
2023-05-13T03:24:49.319Z,10.25
2023-05-13T03:25:49.295Z,10.19
2023-05-13T03:26:49.291Z,10.09
2023-05-13T03:27:49.275Z,10.22
2023-05-13T03:28:49.273Z,9.96
2023-05-13T03:29:49.265Z,10.09
2023-05-13T03:30:49.251Z,9.78
2023-05-13T03:31:49.278Z,9.82
2023-05-13T03:32:49.320Z,9.82
2023-05-13T03:33:49.225Z,9.81
2023-05-13T03:34:49.224Z,9.67
2023-05-13T03:35:49.202Z,9.66
2023-05-13T03:36:49.202Z,9.66
2023-05-13T03:37:49.175Z,9.71
2023-05-13T03:38:49.180Z,9.81
2023-05-13T03:39:49.164Z,9.71
2023-05-13T03:40:49.156Z,9.81
2023-05-13T03:41:49.138Z,9.89
2023-05-13T03:42:49.122Z,9.86
2023-05-13T03:43:49.129Z,9.79
2023-05-13T03:44:49.114Z,9.76
2023-05-13T03:45:49.096Z,9.83
2023-05-13T03:46:49.138Z,9.78
2023-05-13T03:47:49.105Z,9.89
2023-05-13T03:48:49.083Z,9.81
2023-05-13T03:49:49.063Z,9.75
2023-05-13T03:50:49.056Z,9.71
2023-05-13T03:51:49.042Z,9.67
2023-05-13T03:52:49.038Z,9.70
2023-05-13T03:53:49.020Z,9.71
2023-05-13T03:54:49.115Z,9.73
2023-05-13T03:55:48.995Z,9.78
2023-05-13T03:56:48.981Z,9.53
2023-05-13T03:57:49.015Z,9.58
2023-05-13T03:58:48.979Z,9.56
2023-05-13T03:59:48.954Z,9.56
2023-05-13T04:00:48.967Z,9.52
2023-05-13T04:01:49.063Z,9.66
2023-05-13T04:02:49.054Z,9.66
2023-05-13T04:03:48.987Z,9.81
2023-05-13T04:04:49.011Z,9.81
2023-05-13T04:05:49.013Z,9.79
2023-05-13T04:06:48.894Z,9.75
2023-05-13T04:07:48.873Z,9.75
2023-05-13T04:08:48.920Z,9.78
2023-05-13T04:09:48.896Z,9.79
2023-05-13T04:10:48.877Z,9.71
2023-05-13T04:11:48.858Z,9.81
2023-05-13T04:12:48.838Z,9.83
2023-05-13T04:13:48.854Z,9.73
2023-05-13T04:14:48.800Z,9.78
2023-05-13T04:15:48.806Z,9.79
2023-05-13T04:16:48.860Z,9.76
2023-05-13T04:17:48.829Z,9.73
2023-05-13T04:18:48.851Z,9.71
2023-05-13T04:19:48.793Z,9.64
2023-05-13T04:20:48.778Z,9.60
2023-05-13T04:21:48.736Z,9.66
2023-05-13T04:22:48.737Z,9.66
2023-05-13T04:23:48.725Z,9.64
2023-05-13T04:24:48.696Z,9.76
2023-05-13T04:25:48.707Z,9.81
2023-05-13T04:26:48.678Z,9.93
2023-05-13T04:27:48.672Z,9.81
2023-05-13T04:28:48.659Z,9.83
2023-05-13T04:29:48.651Z,9.86
2023-05-13T04:30:48.643Z,10.09
2023-05-13T04:31:48.681Z,9.93
2023-05-13T04:32:48.640Z,9.86
2023-05-13T04:33:48.610Z,9.91
2023-05-13T04:34:48.599Z,9.85
2023-05-13T04:35:48.595Z,9.67
2023-05-13T04:36:48.574Z,9.67
2023-05-13T04:37:48.562Z,9.73
2023-05-13T04:38:48.550Z,9.76
2023-05-13T04:39:48.544Z,9.86
2023-05-13T04:40:49.550Z,9.99
2023-05-13T04:41:48.526Z,9.99
2023-05-13T04:42:48.511Z,10.01
2023-05-13T04:43:48.523Z,9.91
2023-05-13T04:44:48.507Z,10.01
2023-05-13T04:45:48.488Z,10.10
2023-05-13T04:46:48.565Z,10.03
2023-05-13T04:47:48.500Z,10.09
2023-05-13T04:48:48.753Z,10.03
2023-05-13T04:49:48.448Z,10.01
2023-05-13T04:50:48.453Z,9.97
2023-05-13T04:51:48.430Z,10.15
2023-05-13T04:52:48.413Z,10.15
2023-05-13T04:53:48.405Z,10.14
2023-05-13T04:54:48.397Z,10.24
2023-05-13T04:55:48.367Z,10.21
2023-05-13T04:56:48.373Z,10.19
2023-05-13T04:57:48.354Z,9.99
2023-05-13T04:58:48.358Z,10.04
2023-05-13T04:59:48.333Z,10.01
2023-05-13T05:00:48.336Z,9.99
2023-05-13T05:01:48.366Z,9.89
2023-05-13T05:02:48.362Z,9.79
2023-05-13T05:03:48.361Z,9.85
2023-05-13T05:04:48.281Z,9.76
2023-05-13T05:05:48.278Z,9.85
2023-05-13T05:06:48.262Z,9.81
2023-05-13T05:07:48.263Z,9.78
2023-05-13T05:08:48.259Z,9.71
2023-05-13T05:09:48.236Z,9.67
2023-05-13T05:10:49.308Z,9.76
2023-05-13T05:11:48.211Z,9.73
2023-05-13T05:12:48.213Z,9.86
2023-05-13T05:13:48.192Z,10.03
2023-05-13T05:14:48.185Z,10.09
2023-05-13T05:15:48.179Z,10.18
2023-05-13T05:16:48.309Z,10.12
2023-05-13T05:17:48.279Z,10.15
2023-05-13T05:18:48.288Z,10.06
2023-05-13T05:19:48.134Z,10.04
2023-05-13T05:20:48.125Z,9.91
2023-05-13T05:21:48.111Z,9.86
2023-05-13T05:22:48.111Z,9.99
2023-05-13T05:23:48.090Z,10.03
2023-05-13T05:24:48.117Z,9.94
2023-05-13T05:25:49.801Z,9.96
2023-05-13T05:26:49.064Z,9.96
2023-05-13T05:27:48.056Z,9.94
2023-05-13T05:28:48.041Z,9.94
2023-05-13T05:29:48.028Z,10.01
2023-05-13T05:30:48.023Z,10.07
2023-05-13T05:31:48.097Z,10.10
2023-05-13T05:32:48.048Z,10.15
2023-05-13T05:33:47.982Z,10.14
2023-05-13T05:34:47.979Z,10.14
2023-05-13T05:35:47.965Z,10.15
2023-05-13T05:36:47.962Z,10.19
2023-05-13T05:37:47.954Z,10.32
2023-05-13T05:38:47.928Z,10.39
2023-05-13T05:39:47.929Z,10.44
2023-05-13T05:40:47.939Z,10.56
2023-05-13T05:41:47.914Z,10.63
2023-05-13T05:42:47.894Z,10.76
2023-05-13T05:43:47.894Z,10.83
2023-05-13T05:44:47.894Z,10.98
2023-05-13T05:45:47.897Z,11.03
2023-05-13T05:46:47.851Z,11.02
2023-05-13T05:47:47.867Z,10.80
2023-05-13T05:48:47.993Z,10.88
2023-05-13T05:49:47.821Z,10.78
2023-05-13T05:50:47.816Z,10.71
2023-05-13T05:51:47.806Z,10.84
2023-05-13T05:52:47.788Z,10.73
2023-05-13T05:53:47.784Z,10.71
2023-05-13T05:54:47.767Z,10.76
2023-05-13T05:55:47.768Z,10.76
2023-05-13T05:56:47.758Z,10.70
2023-05-13T05:57:47.752Z,10.70
2023-05-13T05:58:47.741Z,10.71
2023-05-13T05:59:47.737Z,10.78
2023-05-13T06:00:47.773Z,10.73
2023-05-13T06:01:47.693Z,10.92
2023-05-13T06:02:47.804Z,10.89
2023-05-13T06:03:47.717Z,10.81
2023-05-13T06:04:47.696Z,10.88
2023-05-13T06:05:47.670Z,10.78
2023-05-13T06:06:47.679Z,10.71
2023-05-13T06:07:47.644Z,10.96
2023-05-13T06:08:47.629Z,10.86
2023-05-13T06:09:47.632Z,10.86
2023-05-13T06:10:47.618Z,10.89
2023-05-13T06:11:47.600Z,10.91
2023-05-13T06:12:47.590Z,10.88
2023-05-13T06:13:47.587Z,11.02
2023-05-13T06:14:47.576Z,11.02
2023-05-13T06:15:47.631Z,11.24
2023-05-13T06:16:47.555Z,11.21
2023-05-13T06:17:47.569Z,11.43
2023-05-13T06:18:47.579Z,11.57
2023-05-13T06:19:47.531Z,11.71
2023-05-13T06:20:47.511Z,11.78
2023-05-13T06:21:47.511Z,11.94
2023-05-13T06:22:47.499Z,11.78
2023-05-13T06:23:47.484Z,11.54
2023-05-13T06:24:47.465Z,11.38
2023-05-13T06:25:47.461Z,11.31
2023-05-13T06:26:47.448Z,11.24
2023-05-13T06:27:47.457Z,11.25
2023-05-13T06:28:47.484Z,11.35
2023-05-13T06:29:47.433Z,11.28
2023-05-13T06:30:47.418Z,11.10
2023-05-13T06:31:47.455Z,11.06
2023-05-13T06:33:00.279Z,11.01
2023-05-13T06:33:49.380Z,11.02
2023-05-13T06:34:47.396Z,11.10
2023-05-13T06:35:47.369Z,11.13
2023-05-13T06:36:47.351Z,11.29
2023-05-13T06:37:47.365Z,11.14
2023-05-13T06:38:47.364Z,11.29
2023-05-13T06:39:47.327Z,11.35
2023-05-13T06:40:47.318Z,11.57
2023-05-13T06:41:47.317Z,11.54
2023-05-13T06:42:47.310Z,11.46
2023-05-13T06:43:47.292Z,11.46
2023-05-13T06:44:47.290Z,11.52
2023-05-13T06:45:47.284Z,11.54
2023-05-13T06:46:47.281Z,11.50
2023-05-13T06:47:47.296Z,11.54
2023-05-13T06:48:47.233Z,11.47
2023-05-13T06:49:47.225Z,11.56
2023-05-13T06:50:47.229Z,11.52
2023-05-13T06:51:47.238Z,11.56
2023-05-13T06:52:47.205Z,11.59
2023-05-13T06:53:47.205Z,11.70
2023-05-13T06:54:47.187Z,11.64
2023-05-13T06:55:47.171Z,11.82
2023-05-13T06:56:47.178Z,11.74
2023-05-13T06:57:47.197Z,11.75
2023-05-13T06:58:47.148Z,11.78
2023-05-13T06:59:47.135Z,11.75
2023-05-13T07:00:47.201Z,11.82
2023-05-13T07:01:47.139Z,11.82
2023-05-13T07:02:47.125Z,11.93
2023-05-13T07:03:47.126Z,11.90
2023-05-13T07:04:47.080Z,12.05
2023-05-13T07:05:47.071Z,11.99
2023-05-13T07:06:47.068Z,11.90
2023-05-13T07:07:47.077Z,12.01
2023-05-13T07:08:47.038Z,12.24
2023-05-13T07:09:47.020Z,12.42
2023-05-13T07:10:47.058Z,12.57
2023-05-13T07:11:47.026Z,12.49
2023-05-13T07:12:46.997Z,12.60
2023-05-13T07:13:46.987Z,12.59
2023-05-13T07:14:46.975Z,12.81
2023-05-13T07:15:46.967Z,12.78
2023-05-13T07:16:46.949Z,12.96
2023-05-13T07:17:47.041Z,13.06
2023-05-13T07:18:46.964Z,13.27
2023-05-13T07:19:46.934Z,13.58
2023-05-13T07:20:46.925Z,13.94
2023-05-13T07:21:46.915Z,14.13
2023-05-13T07:22:46.899Z,14.52
2023-05-13T07:23:46.887Z,14.84
2023-05-13T07:24:46.901Z,15.12
2023-05-13T07:25:46.861Z,15.46
2023-05-13T07:26:46.877Z,15.84
2023-05-13T07:27:46.844Z,15.97
2023-05-13T07:28:46.817Z,16.09
2023-05-13T07:29:46.826Z,16.41
2023-05-13T07:30:46.857Z,16.65
2023-05-13T07:31:46.794Z,16.81
2023-05-13T07:32:46.884Z,16.88
2023-05-13T07:33:46.773Z,16.81
2023-05-13T07:34:46.780Z,16.80
2023-05-13T07:35:46.744Z,16.75
2023-05-13T07:36:46.774Z,16.71
2023-05-13T07:37:46.739Z,16.86
2023-05-13T07:38:46.728Z,16.98
2023-05-13T07:39:46.720Z,16.75
2023-05-13T07:40:46.704Z,16.35
2023-05-13T07:41:46.684Z,16.48
2023-05-13T07:42:46.694Z,16.83
2023-05-13T07:43:46.686Z,16.71
2023-05-13T07:44:46.665Z,16.77
2023-05-13T07:45:46.662Z,16.63
2023-05-13T07:46:46.707Z,16.38
2023-05-13T07:47:46.711Z,16.18
2023-05-13T07:48:46.629Z,15.96
2023-05-13T07:49:46.631Z,15.70
2023-05-13T07:50:46.600Z,15.84
2023-05-13T07:51:46.604Z,16.01
2023-05-13T07:52:46.595Z,16.33
2023-05-13T07:53:46.564Z,16.58
2023-05-13T07:54:46.558Z,16.86
2023-05-13T07:55:46.552Z,16.95
2023-05-13T07:56:46.566Z,17.38
2023-05-13T07:57:46.549Z,17.69
2023-05-13T07:58:46.526Z,18.03
2023-05-13T07:59:46.547Z,18.25
2023-05-13T08:00:46.504Z,18.21
2023-05-13T08:01:46.493Z,18.24
2023-05-13T08:02:46.540Z,18.13
2023-05-13T08:03:46.691Z,18.02
2023-05-13T08:04:46.524Z,18.22
2023-05-13T08:05:46.449Z,18.19
2023-05-13T08:06:46.454Z,18.28
2023-05-13T08:07:46.436Z,18.33
2023-05-13T08:08:46.436Z,18.62
2023-05-13T08:09:46.412Z,18.61
2023-05-13T08:10:46.410Z,18.21
2023-05-13T08:11:46.404Z,18.10
2023-05-13T08:12:46.381Z,18.15
2023-05-13T08:13:46.383Z,18.36
2023-05-13T08:14:48.250Z,18.50
2023-05-13T08:15:46.352Z,18.52
2023-05-13T08:16:46.476Z,18.21
2023-05-13T08:17:46.400Z,18.24
2023-05-13T08:18:46.342Z,18.34
2023-05-13T08:19:46.304Z,18.70
2023-05-13T08:20:46.307Z,18.91
2023-05-13T08:21:46.324Z,19.11
2023-05-13T08:22:46.280Z,19.17
2023-05-13T08:23:46.387Z,19.42
2023-05-13T08:24:46.277Z,19.39
2023-05-13T08:25:46.266Z,19.78
2023-05-13T08:26:46.260Z,20.25
2023-05-13T08:27:46.245Z,20.61
2023-05-13T08:28:46.231Z,20.98
2023-05-13T08:29:46.216Z,21.38
2023-05-13T08:30:46.214Z,21.61
2023-05-13T08:31:46.281Z,21.53
2023-05-13T08:32:46.247Z,21.13
2023-05-13T08:33:46.170Z,20.99
2023-05-13T08:34:46.169Z,21.01
2023-05-13T08:35:46.177Z,21.20
2023-05-13T08:36:46.144Z,21.54
2023-05-13T08:37:46.150Z,21.57
2023-05-13T08:38:46.135Z,21.35
2023-05-13T08:39:46.131Z,21.19
2023-05-13T08:40:46.124Z,21.50
2023-05-13T08:41:46.101Z,21.81
2023-05-13T08:42:46.085Z,22.16
2023-05-13T08:43:46.082Z,22.62
2023-05-13T08:44:46.077Z,22.83
2023-05-13T08:45:46.089Z,22.62
2023-05-13T08:46:46.043Z,21.76
2023-05-13T08:47:46.079Z,21.38
2023-05-13T08:48:46.029Z,21.16
2023-05-13T08:49:46.021Z,21.27
2023-05-13T08:50:46.019Z,21.39
2023-05-13T08:51:46.007Z,21.82
2023-05-13T08:52:46.002Z,22.09
2023-05-13T08:53:46.001Z,22.13
2023-05-13T08:54:45.982Z,21.83
2023-05-13T08:55:45.970Z,21.88
2023-05-13T08:56:45.953Z,21.92
2023-05-13T08:57:45.940Z,22.01
2023-05-13T08:58:46.027Z,22.16
2023-05-13T08:59:45.921Z,22.57
2023-05-13T09:00:45.914Z,22.94
2023-05-13T09:01:46.038Z,23.29
2023-05-13T09:02:45.954Z,23.53
2023-05-13T09:03:45.891Z,23.49
2023-05-13T09:04:45.911Z,23.64
2023-05-13T09:05:45.858Z,23.85
2023-05-13T09:06:45.847Z,24.20
2023-05-13T09:07:45.857Z,24.45
2023-05-13T09:08:45.847Z,24.56
2023-05-13T09:09:45.817Z,24.80
2023-05-13T09:10:45.809Z,24.67
2023-05-13T09:11:45.804Z,24.52
2023-05-13T09:12:45.804Z,24.19
2023-05-13T09:13:45.789Z,23.90
2023-05-13T09:14:45.771Z,23.70
2023-05-13T09:15:45.836Z,24.14
2023-05-13T09:16:45.757Z,24.16
2023-05-13T09:17:45.845Z,23.47
2023-05-13T09:18:45.770Z,23.05
2023-05-13T09:19:45.859Z,23.22
2023-05-13T09:20:45.717Z,23.27
2023-05-13T09:21:45.744Z,23.62
2023-05-13T09:22:45.710Z,24.07
2023-05-13T09:23:45.680Z,24.49
2023-05-13T09:24:45.670Z,24.82
2023-05-13T09:25:45.659Z,25.20
2023-05-13T09:26:45.675Z,25.37
2023-05-13T09:27:45.649Z,25.19
2023-05-13T09:28:45.629Z,25.07
2023-05-13T09:29:45.619Z,24.68
2023-05-13T09:30:46.782Z,24.73
2023-05-13T09:31:46.652Z,24.75
2023-05-13T09:32:45.632Z,24.47
2023-05-13T09:33:45.582Z,24.22
2023-05-13T09:34:45.570Z,24.35
2023-05-13T09:35:45.574Z,24.45
2023-05-13T09:36:45.563Z,24.44
2023-05-13T09:37:45.537Z,24.47
2023-05-13T09:38:45.530Z,24.49
2023-05-13T09:39:45.522Z,24.14
2023-05-13T09:40:45.523Z,23.83
2023-05-13T09:41:45.511Z,23.75
2023-05-13T09:42:45.501Z,23.64
2023-05-13T09:43:45.481Z,23.61
2023-05-13T09:44:45.484Z,23.61
2023-05-13T09:45:45.486Z,23.75
2023-05-13T09:46:45.520Z,23.70
2023-05-13T09:47:45.459Z,23.82
2023-05-13T09:48:46.444Z,23.89
2023-05-13T09:49:45.448Z,23.60
2023-05-13T09:50:45.433Z,23.50
2023-05-13T09:51:45.406Z,23.67
2023-05-13T09:52:45.402Z,23.70
2023-05-13T09:53:45.392Z,23.55
2023-05-13T09:54:45.384Z,23.57
2023-05-13T09:55:45.384Z,23.60
2023-05-13T09:56:45.362Z,23.45
2023-05-13T09:57:45.349Z,23.04
2023-05-13T09:58:45.347Z,22.78
2023-05-13T09:59:45.349Z,22.64
2023-05-13T10:00:45.641Z,22.75
2023-05-13T10:01:45.493Z,23.15
2023-05-13T10:02:45.349Z,23.50
2023-05-13T10:03:45.333Z,23.65
2023-05-13T10:04:45.297Z,23.57
2023-05-13T10:05:45.278Z,23.14
2023-05-13T10:06:45.266Z,23.43
2023-05-13T10:07:45.255Z,23.46
2023-05-13T10:08:45.245Z,23.61
2023-05-13T10:09:45.247Z,23.77
2023-05-13T10:10:45.224Z,23.76
2023-05-13T10:11:45.221Z,23.67
2023-05-13T10:12:45.212Z,23.87
2023-05-13T10:13:45.218Z,23.86
2023-05-13T10:14:45.205Z,23.86
2023-05-13T10:15:45.182Z,23.94
2023-05-13T10:16:45.193Z,24.26
2023-05-13T10:17:45.186Z,24.56
2023-05-13T10:18:45.203Z,24.73
2023-05-13T10:19:45.134Z,24.54
2023-05-13T10:20:46.130Z,24.45
2023-05-13T10:21:45.120Z,24.44
2023-05-13T10:22:45.109Z,24.27
2023-05-13T10:23:45.117Z,24.53
2023-05-13T10:24:45.091Z,24.26
2023-05-13T10:25:45.090Z,24.08
2023-05-13T10:26:45.078Z,24.24
2023-05-13T10:27:45.078Z,24.37
2023-05-13T10:28:45.061Z,24.45
2023-05-13T10:29:45.042Z,24.38
2023-05-13T10:30:45.034Z,24.32
2023-05-13T10:31:45.042Z,24.29
2023-05-13T10:32:45.037Z,24.44
2023-05-13T10:33:45.014Z,24.63
2023-05-13T10:34:45.009Z,24.91
2023-05-13T10:35:44.972Z,25.28
2023-05-13T10:36:44.975Z,25.53
2023-05-13T10:37:44.986Z,25.67
2023-05-13T10:38:44.977Z,25.47
2023-05-13T10:39:44.936Z,24.79
2023-05-13T10:40:44.933Z,24.45
2023-05-13T10:41:44.916Z,24.82
2023-05-13T10:42:44.936Z,24.76
2023-05-13T10:43:44.902Z,24.88
2023-05-13T10:44:44.889Z,25.30
2023-05-13T10:45:44.885Z,25.62
2023-05-13T10:46:44.957Z,25.71
2023-05-13T10:47:44.965Z,25.37
2023-05-13T10:48:44.897Z,24.92
2023-05-13T10:49:44.843Z,24.42
2023-05-13T10:50:44.832Z,24.26
2023-05-13T10:51:44.826Z,24.19
2023-05-13T10:52:44.804Z,24.12
2023-05-13T10:53:44.818Z,23.79
2023-05-13T10:54:44.784Z,23.61
2023-05-13T10:55:44.783Z,23.86
2023-05-13T10:56:44.791Z,24.17
2023-05-13T10:57:44.759Z,24.01
2023-05-13T10:58:44.768Z,23.62
2023-05-13T10:59:44.749Z,23.35
2023-05-13T11:00:44.740Z,23.57
2023-05-13T11:01:44.769Z,23.89
2023-05-13T11:02:44.755Z,24.56
2023-05-13T11:03:44.794Z,24.98
2023-05-13T11:04:44.692Z,25.20
2023-05-13T11:05:44.697Z,25.44
2023-05-13T11:06:44.671Z,25.75
2023-05-13T11:07:44.670Z,25.68
2023-05-13T11:08:44.669Z,25.30
2023-05-13T11:09:44.647Z,25.00
2023-05-13T11:10:44.693Z,24.80
2023-05-13T11:11:44.625Z,24.64
2023-05-13T11:12:44.621Z,24.45
2023-05-13T11:13:44.611Z,24.27
2023-05-13T11:14:44.598Z,24.31
2023-05-13T11:15:45.735Z,24.19
2023-05-13T11:16:45.622Z,24.22
2023-05-13T11:17:44.635Z,24.13
2023-05-13T11:18:44.620Z,24.07
2023-05-13T11:19:44.547Z,24.32
2023-05-13T11:20:52.077Z,24.42
2023-05-13T11:21:46.536Z,24.54
2023-05-13T11:22:44.522Z,24.57
2023-05-13T11:23:44.512Z,24.80
2023-05-13T11:24:44.518Z,24.94
2023-05-13T11:25:44.509Z,25.43
2023-05-13T11:26:44.487Z,25.56
2023-05-13T11:27:44.479Z,25.30
2023-05-13T11:28:44.473Z,25.27
2023-05-13T11:29:44.469Z,24.97
2023-05-13T11:30:52.027Z,24.41
2023-05-13T11:31:45.468Z,24.07
2023-05-13T11:32:45.160Z,23.80
2023-05-13T11:33:44.457Z,23.71
2023-05-13T11:34:44.474Z,23.87
2023-05-13T11:35:44.404Z,23.77
2023-05-13T11:36:44.387Z,24.01
2023-05-13T11:37:44.396Z,24.32
2023-05-13T11:38:44.436Z,24.73
2023-05-13T11:39:44.622Z,25.20
2023-05-13T11:40:44.359Z,25.59
2023-05-13T11:41:44.382Z,25.56
2023-05-13T11:42:45.655Z,25.50
2023-05-13T11:43:44.366Z,25.89
2023-05-13T11:44:44.368Z,25.97
2023-05-13T11:45:44.398Z,25.82
2023-05-13T11:46:44.319Z,25.44
2023-05-13T11:47:44.392Z,24.95
2023-05-13T11:48:44.333Z,24.69
2023-05-13T11:49:44.304Z,24.56
2023-05-13T11:50:44.295Z,24.44
2023-05-13T11:51:44.291Z,24.27
2023-05-13T11:52:44.264Z,24.68
2023-05-13T11:53:44.276Z,24.97
2023-05-13T11:54:44.318Z,24.88
2023-05-13T11:55:44.283Z,25.05
2023-05-13T11:56:44.230Z,25.15
2023-05-13T11:57:44.201Z,25.25
2023-05-13T11:58:44.303Z,24.95
2023-05-13T11:59:48.143Z,25.01
2023-05-13T12:00:46.591Z,25.07
2023-05-13T12:01:45.230Z,24.69
2023-05-13T12:02:44.359Z,24.17
2023-05-13T12:03:44.275Z,23.83
2023-05-13T12:04:44.197Z,23.46
2023-05-13T12:05:44.345Z,23.57
2023-05-13T12:06:44.146Z,23.72
2023-05-13T12:07:44.115Z,23.75
2023-05-13T12:08:44.136Z,23.68
2023-05-13T12:09:44.129Z,23.35
2023-05-13T12:10:44.114Z,23.47
2023-05-13T12:11:44.107Z,23.57
2023-05-13T12:12:44.134Z,23.97
2023-05-13T12:13:44.038Z,24.08
2023-05-13T12:14:44.060Z,24.23
2023-05-13T12:15:44.079Z,24.38
2023-05-13T12:16:44.070Z,24.50
2023-05-13T12:17:44.093Z,24.53
2023-05-13T12:18:44.024Z,24.61
2023-05-13T12:19:44.004Z,24.68
2023-05-13T12:20:43.965Z,24.83
2023-05-13T12:21:43.974Z,24.91
2023-05-13T12:22:43.985Z,24.95
2023-05-13T12:23:43.963Z,24.94
2023-05-13T12:24:43.972Z,24.32
2023-05-13T12:25:43.995Z,24.49
2023-05-13T12:26:44.063Z,24.54
2023-05-13T12:27:43.948Z,24.61
2023-05-13T12:28:43.909Z,24.73
2023-05-13T12:29:43.887Z,24.57
2023-05-13T12:30:43.870Z,24.68
2023-05-13T12:31:43.893Z,24.87
2023-05-13T12:32:46.923Z,24.79
2023-05-13T12:33:43.827Z,24.61
2023-05-13T12:34:43.833Z,24.52
2023-05-13T12:35:43.836Z,24.59
2023-05-13T12:36:43.847Z,24.52
2023-05-13T12:37:43.800Z,24.60
2023-05-13T12:38:43.786Z,24.59
2023-05-13T12:39:43.772Z,24.90
2023-05-13T12:40:43.805Z,25.16
2023-05-13T12:41:43.777Z,25.05
2023-05-13T12:42:43.747Z,24.60
2023-05-13T12:43:43.730Z,24.59
2023-05-13T12:44:43.736Z,24.61
2023-05-13T12:45:44.956Z,24.73
2023-05-13T12:46:44.822Z,24.27
2023-05-13T12:47:43.746Z,23.92
2023-05-13T12:48:43.693Z,24.10
2023-05-13T12:49:43.693Z,24.41
2023-05-13T12:50:43.665Z,24.34
2023-05-13T12:51:43.649Z,24.64
2023-05-13T12:52:43.684Z,24.98
2023-05-13T12:53:43.698Z,24.88
2023-05-13T12:54:43.646Z,24.53
2023-05-13T12:55:43.622Z,24.67